createdAt,value
2016-12-29T00:00:09.662Z,0
2016-12-29T00:00:51.268Z,0
2016-12-29T00:01:33.029Z,0
2016-12-29T00:02:14.788Z,0
2016-12-29T00:02:56.271Z,0
2016-12-29T00:03:37.778Z,0
2016-12-29T00:05:53.157Z,0
2016-12-29T00:08:13.776Z,0
2016-12-29T00:08:55.411Z,0
2016-12-29T00:09:37.114Z,0
2016-12-29T00:10:18.895Z,0
2016-12-29T00:11:00.607Z,0
2016-12-29T00:11:42.352Z,0
2016-12-29T00:12:24.123Z,0
2016-12-29T00:13:05.900Z,0
2016-12-29T00:13:47.497Z,0
2016-12-29T00:18:03.760Z,0
2016-12-29T00:18:45.565Z,0
2016-12-29T00:19:27.231Z,0
2016-12-29T00:21:48.051Z,0
2016-12-29T00:22:29.785Z,0
2016-12-29T00:23:11.426Z,0
2016-12-29T00:23:53.177Z,0
2016-12-29T00:24:34.967Z,0
2016-12-29T00:25:16.731Z,0
2016-12-29T00:25:58.478Z,0
2016-12-29T00:26:40.212Z,0
2016-12-29T00:27:21.893Z,0
2016-12-29T00:28:03.635Z,0
2016-12-29T00:30:45.337Z,0
2016-12-29T00:33:06.013Z,0
2016-12-29T00:35:21.173Z,0
2016-12-29T00:36:02.836Z,0
2016-12-29T00:40:28.418Z,0
2016-12-29T00:41:10.124Z,0
2016-12-29T00:43:51.745Z,0
2016-12-29T00:44:33.461Z,0
2016-12-29T00:45:15.162Z,0
2016-12-29T00:45:56.679Z,0
2016-12-29T00:46:38.490Z,0
2016-12-29T00:47:20.196Z,0
2016-12-29T00:48:01.947Z,0
2016-12-29T00:48:43.627Z,0
2016-12-29T00:49:25.387Z,0
2016-12-29T00:50:07.119Z,0
2016-12-29T00:50:48.717Z,0
2016-12-29T00:51:30.056Z,0
2016-12-29T00:53:50.852Z,0
2016-12-29T00:54:32.605Z,0
2016-12-29T00:55:14.313Z,0
2016-12-29T00:55:56.073Z,0
2016-12-29T00:56:37.828Z,0
2016-12-29T00:57:19.529Z,0
2016-12-29T00:58:01.302Z,0
2016-12-29T00:58:42.956Z,0
2016-12-29T00:59:24.691Z,0
2016-12-29T01:00:06.500Z,0
2016-12-29T01:02:48.130Z,0
2016-12-29T01:03:29.701Z,0
2016-12-29T01:05:45.171Z,0
2016-12-29T01:06:26.438Z,0
2016-12-29T01:07:07.862Z,0
2016-12-29T01:07:49.520Z,0
2016-12-29T01:08:30.924Z,0
2016-12-29T01:09:12.383Z,0
2016-12-29T01:09:53.563Z,0
2016-12-29T01:10:35.290Z,0
2016-12-29T01:11:16.688Z,0
2016-12-29T01:11:58.142Z,0
2016-12-29T01:12:39.674Z,0
2016-12-29T01:13:21.413Z,0
2016-12-29T01:14:03.001Z,0
2016-12-29T01:14:44.656Z,0
2016-12-29T01:15:25.825Z,0
2016-12-29T01:16:07.541Z,0
2016-12-29T01:16:49.089Z,0
2016-12-29T01:17:30.560Z,0
2016-12-29T01:18:12.279Z,0
2016-12-29T01:18:54.019Z,0
2016-12-29T01:19:35.608Z,0
2016-12-29T01:20:17.299Z,0
2016-12-29T01:20:58.978Z,0
2016-12-29T01:21:40.683Z,0
2016-12-29T01:22:22.252Z,0
2016-12-29T01:23:03.878Z,0
2016-12-29T01:23:45.642Z,0
2016-12-29T01:24:27.408Z,0
2016-12-29T01:25:09.115Z,0
2016-12-29T01:25:50.885Z,0
2016-12-29T01:26:32.689Z,0
2016-12-29T01:27:14.446Z,0
2016-12-29T01:27:56.161Z,0
2016-12-29T01:28:37.897Z,0
2016-12-29T01:29:19.664Z,0
2016-12-29T01:30:01.403Z,0
2016-12-29T01:30:43.170Z,0
2016-12-29T01:31:24.934Z,0
2016-12-29T01:32:06.698Z,0
2016-12-29T01:32:48.352Z,0
2016-12-29T01:33:29.985Z,0
2016-12-29T01:36:06.135Z,0
2016-12-29T01:36:47.865Z,0
2016-12-29T01:37:29.408Z,0
2016-12-29T01:38:10.780Z,0
2016-12-29T01:40:31.380Z,0
2016-12-29T01:41:13.085Z,0
2016-12-29T01:41:54.749Z,0
2016-12-29T01:42:36.544Z,0
2016-12-29T01:43:18.022Z,0
2016-12-29T01:43:59.654Z,0
2016-12-29T01:44:41.428Z,0
2016-12-29T01:45:23.098Z,0
2016-12-29T01:46:04.684Z,0
2016-12-29T01:48:20.042Z,0
2016-12-29T01:49:01.722Z,0
2016-12-29T01:49:43.247Z,0
2016-12-29T01:50:24.906Z,0
2016-12-29T01:52:45.640Z,0
2016-12-29T01:53:27.195Z,0
2016-12-29T01:54:08.925Z,0
2016-12-29T01:54:50.711Z,0
2016-12-29T01:55:32.399Z,0
2016-12-29T01:56:14.078Z,0
2016-12-29T01:56:55.823Z,0
2016-12-29T01:57:37.476Z,0
2016-12-29T01:58:18.652Z,0
2016-12-29T02:00:33.923Z,0
2016-12-29T02:01:15.614Z,0
2016-12-29T02:01:56.395Z,0
2016-12-29T02:02:36.917Z,0
2016-12-29T02:03:17.427Z,0
2016-12-29T02:03:57.957Z,0
2016-12-29T02:04:38.482Z,0
2016-12-29T02:05:19.011Z,0
2016-12-29T02:05:59.539Z,0
2016-12-29T02:06:40.064Z,0
2016-12-29T02:07:20.588Z,0
2016-12-29T02:08:01.121Z,0
2016-12-29T02:08:41.646Z,0
2016-12-29T02:09:22.157Z,0
2016-12-29T02:10:02.670Z,0
2016-12-29T02:10:43.193Z,0
2016-12-29T02:11:23.709Z,0
2016-12-29T02:12:04.244Z,0
2016-12-29T02:12:44.787Z,0
2016-12-29T02:13:25.296Z,0
2016-12-29T02:14:05.856Z,0
2016-12-29T02:14:46.368Z,0
2016-12-29T02:15:26.901Z,0
2016-12-29T02:16:07.421Z,0
2016-12-29T02:16:47.952Z,0
2016-12-29T02:17:28.460Z,0
2016-12-29T02:18:08.972Z,0
2016-12-29T02:18:49.503Z,0
2016-12-29T02:19:30.030Z,0
2016-12-29T02:20:10.572Z,0
2016-12-29T02:20:51.101Z,0
2016-12-29T02:21:31.639Z,0
2016-12-29T02:22:12.149Z,0
2016-12-29T02:22:52.664Z,0
2016-12-29T02:23:33.190Z,0
2016-12-29T02:24:13.703Z,0
2016-12-29T02:24:54.215Z,0
2016-12-29T02:25:34.757Z,0
2016-12-29T02:26:15.250Z,0
2016-12-29T02:26:55.764Z,0
2016-12-29T02:27:36.258Z,0
2016-12-29T02:28:16.782Z,0
2016-12-29T02:28:57.307Z,0
2016-12-29T02:29:37.846Z,0
2016-12-29T02:30:18.348Z,0
2016-12-29T02:30:58.878Z,0
2016-12-29T02:31:39.393Z,0
2016-12-29T02:32:19.899Z,0
2016-12-29T02:33:00.423Z,0
2016-12-29T02:33:40.953Z,0
2016-12-29T02:34:21.482Z,0
2016-12-29T02:35:02.000Z,0
2016-12-29T02:35:42.514Z,0
2016-12-29T02:36:23.045Z,0
2016-12-29T02:37:03.563Z,0
2016-12-29T02:37:44.070Z,0
2016-12-29T02:38:24.598Z,0
2016-12-29T02:39:05.096Z,0
2016-12-29T02:39:45.613Z,0
2016-12-29T02:40:26.119Z,0
2016-12-29T02:41:06.631Z,0
2016-12-29T02:41:47.173Z,0
2016-12-29T02:42:27.705Z,0
2016-12-29T02:43:08.211Z,0
2016-12-29T02:43:48.723Z,0
2016-12-29T02:44:29.252Z,0
2016-12-29T02:45:09.774Z,0
2016-12-29T02:45:50.267Z,0
2016-12-29T02:46:30.784Z,0
2016-12-29T02:47:11.301Z,0
2016-12-29T02:47:51.854Z,0
2016-12-29T02:48:32.370Z,0
2016-12-29T02:49:12.895Z,0
2016-12-29T02:49:53.394Z,0
2016-12-29T02:50:33.915Z,0
2016-12-29T02:51:14.416Z,0
2016-12-29T02:51:54.930Z,0
2016-12-29T02:52:35.451Z,0
2016-12-29T02:53:15.960Z,0
2016-12-29T02:53:56.470Z,0
2016-12-29T02:54:37.019Z,0
2016-12-29T02:55:17.500Z,0
2016-12-29T02:55:58.019Z,0
2016-12-29T02:56:38.545Z,0
2016-12-29T02:57:19.061Z,0
2016-12-29T02:57:59.583Z,0
2016-12-29T02:58:40.114Z,0
2016-12-29T02:59:20.616Z,0
2016-12-29T03:00:01.123Z,0
2016-12-29T03:00:41.642Z,0
2016-12-29T03:01:22.163Z,0
2016-12-29T03:02:02.679Z,0
2016-12-29T03:02:43.198Z,0
2016-12-29T03:03:23.707Z,0
2016-12-29T03:04:04.282Z,0
2016-12-29T03:04:44.834Z,0
2016-12-29T03:05:25.360Z,0
2016-12-29T03:06:05.871Z,0
2016-12-29T03:06:46.440Z,0
2016-12-29T03:07:26.962Z,0
2016-12-29T03:08:07.480Z,0
2016-12-29T03:08:47.992Z,0
2016-12-29T03:09:28.500Z,0
2016-12-29T03:10:09.018Z,0
2016-12-29T03:10:49.519Z,0
2016-12-29T03:11:30.048Z,0
2016-12-29T03:12:10.525Z,0
2016-12-29T03:12:51.048Z,0
2016-12-29T03:13:31.581Z,0
2016-12-29T03:14:12.117Z,0
2016-12-29T03:14:52.614Z,0
2016-12-29T03:15:33.122Z,0
2016-12-29T03:16:13.653Z,0
2016-12-29T03:16:54.180Z,0
2016-12-29T03:17:34.699Z,0
2016-12-29T03:18:15.216Z,0
2016-12-29T03:18:55.728Z,0
2016-12-29T03:19:36.233Z,0
2016-12-29T03:20:16.756Z,0
2016-12-29T03:20:57.285Z,0
2016-12-29T03:21:37.781Z,0
2016-12-29T03:22:18.287Z,0
2016-12-29T03:22:58.814Z,0
2016-12-29T03:23:39.316Z,0
2016-12-29T03:24:19.842Z,0
2016-12-29T03:25:00.369Z,0
2016-12-29T03:25:40.882Z,0
2016-12-29T03:26:21.395Z,0
2016-12-29T03:27:01.914Z,0
2016-12-29T03:27:42.410Z,0
2016-12-29T03:28:22.922Z,0
2016-12-29T03:29:03.426Z,0
2016-12-29T03:29:43.938Z,0
2016-12-29T03:30:24.450Z,0
2016-12-29T03:31:04.977Z,0
2016-12-29T03:31:45.508Z,0
2016-12-29T03:32:26.027Z,0
2016-12-29T03:33:06.550Z,0
2016-12-29T03:33:47.045Z,0
2016-12-29T03:34:27.575Z,0
2016-12-29T03:35:08.116Z,0
2016-12-29T03:35:48.649Z,0
2016-12-29T03:36:29.169Z,0
2016-12-29T03:37:09.698Z,0
2016-12-29T03:37:50.218Z,0
2016-12-29T03:38:30.753Z,0
2016-12-29T03:39:11.275Z,0
2016-12-29T03:39:51.811Z,0
2016-12-29T03:40:32.327Z,0
2016-12-29T03:41:12.834Z,0
2016-12-29T03:41:53.356Z,0
2016-12-29T03:42:33.867Z,0
2016-12-29T03:43:14.385Z,0
2016-12-29T03:43:54.879Z,0
2016-12-29T03:44:35.417Z,0
2016-12-29T03:45:15.920Z,0
2016-12-29T03:45:56.453Z,0
2016-12-29T03:46:36.947Z,0
2016-12-29T03:47:17.451Z,0
2016-12-29T03:47:57.976Z,0
2016-12-29T03:48:38.503Z,0
2016-12-29T03:49:19.019Z,0
2016-12-29T03:49:59.551Z,0
2016-12-29T03:50:40.061Z,0
2016-12-29T03:51:20.572Z,0
2016-12-29T03:52:01.092Z,0
2016-12-29T03:52:41.623Z,0
2016-12-29T03:53:22.156Z,0
2016-12-29T03:54:02.675Z,0
2016-12-29T03:54:43.204Z,0
2016-12-29T03:55:23.731Z,0
2016-12-29T03:56:04.256Z,0
2016-12-29T03:56:44.777Z,0
2016-12-29T03:57:25.282Z,0
2016-12-29T03:58:05.805Z,0
2016-12-29T03:58:46.318Z,0
2016-12-29T03:59:26.835Z,0
2016-12-29T04:00:07.370Z,0
2016-12-29T04:00:47.908Z,0
2016-12-29T04:01:28.425Z,0
2016-12-29T04:02:08.952Z,0
2016-12-29T04:02:49.483Z,0
2016-12-29T04:03:30.018Z,0
2016-12-29T04:04:10.580Z,0
2016-12-29T04:04:51.122Z,0
2016-12-29T04:05:31.630Z,0
2016-12-29T04:06:12.146Z,0
2016-12-29T04:06:52.691Z,0
2016-12-29T04:07:33.189Z,0
2016-12-29T04:08:13.697Z,0
2016-12-29T04:08:54.217Z,0
2016-12-29T04:09:34.715Z,0
2016-12-29T04:10:15.237Z,0
2016-12-29T04:10:55.750Z,0
2016-12-29T04:11:36.251Z,0
2016-12-29T04:12:16.787Z,0
2016-12-29T04:12:57.271Z,0
2016-12-29T04:13:37.798Z,0
2016-12-29T04:14:18.318Z,0
2016-12-29T04:14:58.829Z,0
2016-12-29T04:15:39.352Z,0
2016-12-29T04:16:19.874Z,0
2016-12-29T04:17:00.409Z,0
2016-12-29T04:17:40.917Z,0
2016-12-29T04:18:21.436Z,0
2016-12-29T04:19:01.962Z,0
2016-12-29T04:19:42.447Z,0
2016-12-29T04:20:22.972Z,0
2016-12-29T04:21:03.462Z,0
2016-12-29T04:21:43.993Z,0
2016-12-29T04:22:24.528Z,0
2016-12-29T04:23:05.060Z,0
2016-12-29T04:23:45.559Z,0
2016-12-29T04:24:26.094Z,0
2016-12-29T04:25:06.631Z,0
2016-12-29T04:25:47.162Z,0
2016-12-29T04:26:27.682Z,0
2016-12-29T04:27:08.220Z,0
2016-12-29T04:29:27.563Z,0
2016-12-29T04:30:08.094Z,0
2016-12-29T04:30:48.652Z,0
2016-12-29T04:31:29.170Z,0
2016-12-29T04:32:09.689Z,0
2016-12-29T04:32:50.207Z,0
2016-12-29T04:33:30.716Z,0
2016-12-29T04:34:11.230Z,0
2016-12-29T04:34:51.746Z,0
2016-12-29T04:35:32.221Z,0
2016-12-29T04:36:12.735Z,0
2016-12-29T04:36:53.222Z,0
2016-12-29T04:37:33.760Z,0
2016-12-29T04:38:14.247Z,0
2016-12-29T04:38:54.762Z,0
2016-12-29T04:39:35.285Z,0
2016-12-29T04:40:15.783Z,0
2016-12-29T04:40:56.306Z,0
2016-12-29T04:41:36.834Z,0
2016-12-29T04:42:17.344Z,0
2016-12-29T04:42:57.855Z,0
2016-12-29T04:43:38.383Z,0
2016-12-29T04:44:18.905Z,0
2016-12-29T04:44:59.417Z,0
2016-12-29T04:45:39.965Z,0
2016-12-29T04:46:20.564Z,0
2016-12-29T04:47:01.090Z,0
2016-12-29T04:47:41.609Z,0
2016-12-29T04:48:22.141Z,0
2016-12-29T04:49:02.669Z,0
2016-12-29T04:49:43.195Z,0
2016-12-29T04:50:23.713Z,0
2016-12-29T04:51:04.238Z,0
2016-12-29T04:51:44.755Z,0
2016-12-29T04:52:25.262Z,0
2016-12-29T04:53:05.787Z,0
2016-12-29T04:53:46.294Z,0
2016-12-29T04:54:26.816Z,0
2016-12-29T04:55:07.321Z,0
2016-12-29T04:55:47.825Z,0
2016-12-29T04:56:28.353Z,0
2016-12-29T04:57:08.851Z,0
2016-12-29T04:57:49.360Z,0
2016-12-29T04:58:29.874Z,0
2016-12-29T04:59:10.391Z,0
2016-12-29T04:59:50.909Z,0
2016-12-29T05:00:31.465Z,0
2016-12-29T05:01:11.971Z,0
2016-12-29T05:01:52.479Z,0
2016-12-29T05:02:32.988Z,0
2016-12-29T05:03:13.506Z,0
2016-12-29T05:03:54.010Z,0
2016-12-29T05:04:34.521Z,0
2016-12-29T05:05:15.036Z,0
2016-12-29T05:05:55.559Z,0
2016-12-29T05:06:36.095Z,0
2016-12-29T05:07:16.600Z,0
2016-12-29T05:07:57.115Z,0
2016-12-29T05:08:37.669Z,0
2016-12-29T05:09:18.164Z,0
2016-12-29T05:09:58.659Z,0
2016-12-29T05:10:39.175Z,0
2016-12-29T05:11:19.694Z,0
2016-12-29T05:12:00.212Z,0
2016-12-29T05:12:40.746Z,0
2016-12-29T05:13:21.286Z,0
2016-12-29T05:14:01.808Z,0
2016-12-29T05:14:42.341Z,0
2016-12-29T05:15:22.863Z,0
2016-12-29T05:16:03.405Z,0
2016-12-29T05:16:43.942Z,0
2016-12-29T05:17:24.452Z,0
2016-12-29T05:18:04.980Z,0
2016-12-29T05:18:45.513Z,0
2016-12-29T05:19:26.042Z,0
2016-12-29T05:20:06.559Z,0
2016-12-29T05:20:47.223Z,0
2016-12-29T05:21:27.751Z,0
2016-12-29T05:22:08.280Z,0
2016-12-29T05:22:48.813Z,0
2016-12-29T05:23:29.347Z,0
2016-12-29T05:24:09.867Z,0
2016-12-29T05:24:50.395Z,0
2016-12-29T05:25:30.916Z,0
2016-12-29T05:26:11.438Z,0
2016-12-29T05:26:51.934Z,0
2016-12-29T05:27:32.450Z,0
2016-12-29T05:28:12.962Z,0
2016-12-29T05:28:53.469Z,0
2016-12-29T05:29:34.205Z,0
2016-12-29T05:30:14.889Z,0
2016-12-29T05:30:55.461Z,0
2016-12-29T05:31:36.001Z,0
2016-12-29T05:32:16.523Z,0
2016-12-29T05:32:57.036Z,0
2016-12-29T05:33:37.547Z,0
2016-12-29T05:34:18.090Z,0
2016-12-29T05:34:58.600Z,0
2016-12-29T05:35:39.107Z,0
2016-12-29T05:36:19.633Z,0
2016-12-29T05:37:00.163Z,0
2016-12-29T05:37:40.712Z,0
2016-12-29T05:38:21.220Z,0
2016-12-29T05:39:01.731Z,0
2016-12-29T05:39:42.259Z,0
2016-12-29T05:40:22.779Z,0
2016-12-29T05:41:03.305Z,0
2016-12-29T05:41:43.841Z,0
2016-12-29T05:42:24.352Z,0
2016-12-29T05:43:04.860Z,0
2016-12-29T05:43:45.383Z,0
2016-12-29T05:44:25.874Z,0
2016-12-29T05:45:06.381Z,0
2016-12-29T05:45:46.913Z,0
2016-12-29T05:46:27.473Z,0
2016-12-29T05:47:07.969Z,0
2016-12-29T05:47:48.483Z,0
2016-12-29T05:48:28.999Z,0
2016-12-29T05:49:09.544Z,0
2016-12-29T05:49:50.051Z,0
2016-12-29T05:50:30.558Z,0
2016-12-29T05:51:11.074Z,0
2016-12-29T05:51:51.595Z,0
2016-12-29T05:52:32.114Z,0
2016-12-29T05:53:12.645Z,0
2016-12-29T05:53:53.174Z,0
2016-12-29T05:54:33.704Z,0
2016-12-29T05:55:14.244Z,0
2016-12-29T05:55:54.776Z,0
2016-12-29T05:56:35.279Z,0
2016-12-29T05:57:15.790Z,0
2016-12-29T05:57:56.328Z,0
2016-12-29T05:58:37.135Z,0
2016-12-29T05:59:17.738Z,0
2016-12-29T05:59:58.258Z,0
2016-12-29T06:00:38.756Z,0
2016-12-29T06:01:19.271Z,0
2016-12-29T06:01:59.816Z,0
2016-12-29T06:02:40.343Z,0
2016-12-29T06:03:20.887Z,0
2016-12-29T06:04:01.621Z,0
2016-12-29T06:04:42.208Z,0
2016-12-29T06:05:22.739Z,0
2016-12-29T06:06:03.267Z,0
2016-12-29T06:06:43.897Z,0
2016-12-29T06:07:24.418Z,0
2016-12-29T06:08:04.946Z,0
2016-12-29T06:08:45.471Z,0
2016-12-29T06:09:25.989Z,0
2016-12-29T06:10:06.503Z,0
2016-12-29T06:10:47.017Z,0
2016-12-29T06:11:27.540Z,0
2016-12-29T06:12:08.073Z,0
2016-12-29T06:12:48.603Z,0
2016-12-29T06:13:29.133Z,0
2016-12-29T06:14:09.659Z,0
2016-12-29T06:14:50.189Z,0
2016-12-29T06:15:30.712Z,0
2016-12-29T06:16:11.232Z,0
2016-12-29T06:16:51.762Z,0
2016-12-29T06:17:32.289Z,0
2016-12-29T06:18:12.809Z,0
2016-12-29T06:18:53.338Z,0
2016-12-29T06:19:33.872Z,0
2016-12-29T06:20:14.389Z,0
2016-12-29T06:20:54.913Z,0
2016-12-29T06:21:35.435Z,0
2016-12-29T06:22:15.930Z,0
2016-12-29T06:22:56.439Z,0
2016-12-29T06:23:36.940Z,0
2016-12-29T06:24:17.436Z,0
2016-12-29T06:24:57.957Z,0
2016-12-29T06:25:38.469Z,0
2016-12-29T06:26:18.986Z,0
2016-12-29T06:26:59.521Z,0
2016-12-29T06:27:40.054Z,0
2016-12-29T06:28:20.567Z,0
2016-12-29T06:29:01.305Z,0
2016-12-29T06:29:41.922Z,0
2016-12-29T06:30:22.482Z,0
2016-12-29T06:31:03.166Z,0
2016-12-29T06:31:43.812Z,0
2016-12-29T06:32:24.577Z,0
2016-12-29T06:33:05.081Z,0
2016-12-29T06:33:45.604Z,0
2016-12-29T06:34:26.128Z,0
2016-12-29T06:35:06.631Z,0
2016-12-29T06:35:47.153Z,0
2016-12-29T06:36:27.664Z,0
2016-12-29T06:37:08.186Z,0
2016-12-29T06:37:48.768Z,0
2016-12-29T06:38:29.278Z,0
2016-12-29T06:39:09.778Z,0
2016-12-29T06:39:50.265Z,0
2016-12-29T06:40:30.796Z,0
2016-12-29T06:41:11.322Z,0
2016-12-29T06:41:51.839Z,0
2016-12-29T06:42:32.418Z,0
2016-12-29T06:43:12.945Z,0
2016-12-29T06:43:53.486Z,0
2016-12-29T06:44:34.025Z,0
2016-12-29T06:45:14.570Z,0
2016-12-29T06:45:55.082Z,0
2016-12-29T06:46:35.608Z,0
2016-12-29T06:47:16.138Z,0
2016-12-29T06:47:56.689Z,0
2016-12-29T06:48:37.186Z,0
2016-12-29T06:49:17.722Z,0
2016-12-29T06:49:58.233Z,0
2016-12-29T06:50:38.783Z,0
2016-12-29T06:51:19.271Z,0
2016-12-29T06:51:59.810Z,0
2016-12-29T06:52:40.351Z,0
2016-12-29T06:53:20.862Z,0
2016-12-29T06:54:01.384Z,0
2016-12-29T06:54:41.912Z,0
2016-12-29T06:55:22.484Z,0
2016-12-29T06:56:03.012Z,0
2016-12-29T06:56:43.545Z,0
2016-12-29T06:57:24.080Z,0
2016-12-29T06:58:04.599Z,0
2016-12-29T06:58:45.139Z,0
2016-12-29T06:59:25.671Z,0
2016-12-29T07:00:06.204Z,0
2016-12-29T07:00:46.738Z,0
2016-12-29T07:01:27.244Z,0
2016-12-29T07:02:07.736Z,0
2016-12-29T07:02:48.280Z,0
2016-12-29T07:03:28.786Z,0
2016-12-29T07:04:09.293Z,0
2016-12-29T07:04:49.799Z,0
2016-12-29T07:05:30.333Z,0
2016-12-29T07:06:10.851Z,0
2016-12-29T07:06:51.389Z,0
2016-12-29T07:07:31.928Z,0
2016-12-29T07:08:12.434Z,0
2016-12-29T07:08:52.970Z,0
2016-12-29T07:09:33.479Z,0
2016-12-29T07:10:14.008Z,0
2016-12-29T07:10:54.519Z,0
2016-12-29T07:11:35.046Z,0
2016-12-29T07:12:15.576Z,0
2016-12-29T07:12:56.086Z,0
2016-12-29T07:13:36.601Z,0
2016-12-29T07:14:17.086Z,0
2016-12-29T07:14:57.608Z,0
2016-12-29T07:15:38.152Z,0
2016-12-29T07:16:18.655Z,0
2016-12-29T07:16:59.185Z,0
2016-12-29T07:17:39.704Z,0
2016-12-29T07:18:20.247Z,0
2016-12-29T07:19:00.797Z,0
2016-12-29T07:19:41.321Z,0
2016-12-29T07:20:21.841Z,0
2016-12-29T07:21:02.369Z,0
2016-12-29T07:21:42.902Z,0
2016-12-29T07:22:23.434Z,0
2016-12-29T07:23:03.971Z,0
2016-12-29T07:23:44.485Z,0
2016-12-29T07:24:25.013Z,0
2016-12-29T07:25:05.538Z,0
2016-12-29T07:25:46.081Z,0
2016-12-29T07:26:26.584Z,0
2016-12-29T07:27:07.101Z,0
2016-12-29T07:27:47.633Z,0
2016-12-29T07:28:28.160Z,0
2016-12-29T07:29:08.690Z,0
2016-12-29T07:29:49.247Z,0
2016-12-29T07:30:29.777Z,0
2016-12-29T07:31:10.318Z,0
2016-12-29T07:31:50.855Z,0
2016-12-29T07:32:31.390Z,0
2016-12-29T07:33:11.964Z,0
2016-12-29T07:33:52.454Z,0
2016-12-29T07:34:32.975Z,5
2016-12-29T07:35:13.506Z,5
2016-12-29T07:35:54.038Z,5
2016-12-29T07:36:34.541Z,5
2016-12-29T07:37:15.057Z,5
2016-12-29T07:37:55.561Z,5
2016-12-29T07:38:36.056Z,5
2016-12-29T07:39:16.541Z,5
2016-12-29T07:39:57.103Z,5
2016-12-29T07:40:37.611Z,5
2016-12-29T07:41:18.120Z,5
2016-12-29T07:41:58.664Z,5
2016-12-29T07:42:39.195Z,5
2016-12-29T07:43:19.721Z,5
2016-12-29T07:44:00.232Z,5
2016-12-29T07:44:40.750Z,5
2016-12-29T07:45:21.281Z,5
2016-12-29T07:46:01.817Z,5
2016-12-29T07:46:42.344Z,10
2016-12-29T07:47:22.860Z,10
2016-12-29T07:48:03.394Z,10
2016-12-29T07:48:43.919Z,10
2016-12-29T07:49:24.448Z,10
2016-12-29T07:50:04.962Z,10
2016-12-29T07:50:45.484Z,10
2016-12-29T07:51:26.016Z,10
2016-12-29T07:52:06.543Z,10
2016-12-29T07:52:47.095Z,10
2016-12-29T07:53:27.612Z,10
2016-12-29T07:54:08.137Z,10
2016-12-29T07:54:48.669Z,10
2016-12-29T07:55:29.217Z,10
2016-12-29T07:56:09.750Z,15
2016-12-29T07:56:50.275Z,15
2016-12-29T07:57:30.808Z,15
2016-12-29T07:58:11.330Z,15
2016-12-29T07:58:51.861Z,15
2016-12-29T07:59:32.365Z,15
2016-12-29T08:00:12.883Z,15
2016-12-29T08:00:53.429Z,15
2016-12-29T08:01:33.948Z,15
2016-12-29T08:02:14.476Z,15
2016-12-29T08:02:54.994Z,15
2016-12-29T08:03:35.514Z,20
2016-12-29T08:04:16.019Z,20
2016-12-29T08:04:56.552Z,20
2016-12-29T08:05:37.075Z,20
2016-12-29T08:06:17.597Z,20
2016-12-29T08:06:58.123Z,20
2016-12-29T08:07:38.654Z,20
2016-12-29T08:08:19.275Z,20
2016-12-29T08:08:59.821Z,20
2016-12-29T08:09:40.305Z,20
2016-12-29T08:10:20.807Z,20
2016-12-29T08:11:01.350Z,20
2016-12-29T08:11:41.866Z,25
2016-12-29T08:12:22.390Z,25
2016-12-29T08:13:02.934Z,25
2016-12-29T08:13:43.478Z,25
2016-12-29T08:14:24.045Z,25
2016-12-29T08:15:04.555Z,30
2016-12-29T08:15:45.104Z,25
2016-12-29T08:16:25.611Z,25
2016-12-29T08:17:06.127Z,30
2016-12-29T08:17:46.764Z,30
2016-12-29T08:18:27.294Z,25
2016-12-29T08:19:07.807Z,25
2016-12-29T08:19:48.316Z,30
2016-12-29T08:20:28.834Z,30
2016-12-29T08:21:09.339Z,30
2016-12-29T08:21:49.871Z,30
2016-12-29T08:22:30.420Z,30
2016-12-29T08:23:10.943Z,30
2016-12-29T08:23:51.604Z,30
2016-12-29T08:24:32.086Z,30
2016-12-29T08:25:12.616Z,35
2016-12-29T08:25:53.140Z,35
2016-12-29T08:26:33.651Z,35
2016-12-29T08:27:14.154Z,35
2016-12-29T08:27:54.734Z,35
2016-12-29T08:28:35.172Z,35
2016-12-29T08:29:15.658Z,35
2016-12-29T08:29:56.966Z,35
2016-12-29T08:30:37.491Z,40
2016-12-29T08:31:18.015Z,40
2016-12-29T08:31:58.540Z,40
2016-12-29T08:32:39.060Z,45
2016-12-29T08:33:19.582Z,40
2016-12-29T08:34:00.079Z,40
2016-12-29T08:34:40.588Z,45
2016-12-29T08:35:21.105Z,45
2016-12-29T08:36:01.650Z,50
2016-12-29T08:36:42.136Z,50
2016-12-29T08:37:22.662Z,50
2016-12-29T08:38:03.193Z,45
2016-12-29T08:38:43.693Z,45
2016-12-29T08:39:24.203Z,50
2016-12-29T08:40:04.856Z,50
2016-12-29T08:40:45.368Z,50
2016-12-29T08:41:26.120Z,50
2016-12-29T08:42:06.661Z,45
2016-12-29T08:42:47.179Z,45
2016-12-29T08:43:27.691Z,45
2016-12-29T08:44:08.345Z,45
2016-12-29T08:44:49.036Z,45
2016-12-29T08:45:29.582Z,45
2016-12-29T08:46:10.181Z,45
2016-12-29T08:46:50.704Z,50
2016-12-29T08:47:31.226Z,45
2016-12-29T08:48:11.842Z,45
2016-12-29T08:48:52.276Z,45
2016-12-29T08:49:32.789Z,45
2016-12-29T08:50:13.318Z,50
2016-12-29T08:50:53.852Z,50
2016-12-29T08:51:34.370Z,45
2016-12-29T08:52:14.886Z,45
2016-12-29T08:52:55.413Z,50
2016-12-29T08:53:35.942Z,60
2016-12-29T08:54:16.482Z,60
2016-12-29T08:54:57.044Z,50
2016-12-29T08:55:37.579Z,55
2016-12-29T08:56:18.102Z,50
2016-12-29T08:56:58.639Z,50
2016-12-29T08:57:39.173Z,55
2016-12-29T08:58:19.690Z,55
2016-12-29T08:59:00.205Z,60
2016-12-29T08:59:40.720Z,65
2016-12-29T09:00:21.260Z,65
2016-12-29T09:01:01.754Z,65
2016-12-29T09:01:42.283Z,65
2016-12-29T09:02:22.817Z,65
2016-12-29T09:03:03.354Z,65
2016-12-29T09:03:43.888Z,70
2016-12-29T09:04:24.422Z,70
2016-12-29T09:05:04.950Z,65
2016-12-29T09:05:45.489Z,70
2016-12-29T09:06:26.030Z,65
2016-12-29T09:07:06.562Z,65
2016-12-29T09:07:47.100Z,70
2016-12-29T09:08:27.631Z,70
2016-12-29T09:09:08.155Z,70
2016-12-29T09:09:48.683Z,75
2016-12-29T09:10:29.220Z,80
2016-12-29T09:11:09.760Z,80
2016-12-29T09:11:50.290Z,80
2016-12-29T09:12:30.823Z,85
2016-12-29T09:13:11.355Z,85
2016-12-29T09:13:51.885Z,90
2016-12-29T09:14:32.417Z,85
2016-12-29T09:15:12.950Z,85
2016-12-29T09:15:53.486Z,85
2016-12-29T09:16:33.983Z,85
2016-12-29T09:17:14.503Z,80
2016-12-29T09:17:55.040Z,90
2016-12-29T09:18:35.573Z,80
2016-12-29T09:19:16.100Z,95
2016-12-29T09:19:56.618Z,95
2016-12-29T09:20:37.147Z,100
2016-12-29T09:21:17.683Z,100
2016-12-29T09:21:58.211Z,95
2016-12-29T09:22:38.755Z,95
2016-12-29T09:23:19.298Z,95
2016-12-29T09:23:59.806Z,90
2016-12-29T09:24:40.323Z,95
2016-12-29T09:25:20.828Z,105
2016-12-29T09:26:01.351Z,95
2016-12-29T09:26:41.865Z,100
2016-12-29T09:27:22.407Z,105
2016-12-29T09:28:02.905Z,115
2016-12-29T09:28:43.442Z,120
2016-12-29T09:29:23.974Z,125
2016-12-29T09:30:04.489Z,135
2016-12-29T09:30:45.020Z,130
2016-12-29T09:31:25.554Z,130
2016-12-29T09:32:06.087Z,120
2016-12-29T09:32:46.597Z,125
2016-12-29T09:33:27.140Z,120
2016-12-29T09:34:07.658Z,130
2016-12-29T09:34:48.183Z,135
2016-12-29T09:35:28.705Z,145
2016-12-29T09:36:09.214Z,170
2016-12-29T09:36:49.740Z,175
2016-12-29T09:37:30.247Z,165
2016-12-29T09:38:10.786Z,185
2016-12-29T09:38:51.292Z,185
2016-12-29T09:39:31.824Z,165
2016-12-29T09:40:12.347Z,150
2016-12-29T09:40:52.893Z,140
2016-12-29T09:41:33.392Z,135
2016-12-29T09:42:13.896Z,135
2016-12-29T09:42:54.607Z,130
2016-12-29T09:43:35.114Z,135
2016-12-29T09:44:15.679Z,145
2016-12-29T09:44:56.160Z,180
2016-12-29T09:45:36.685Z,180
2016-12-29T09:46:17.212Z,170
2016-12-29T09:46:57.754Z,200
2016-12-29T09:47:38.245Z,230
2016-12-29T09:48:18.763Z,195
2016-12-29T09:48:59.261Z,235
2016-12-29T09:49:39.760Z,230
2016-12-29T09:50:20.329Z,255
2016-12-29T09:51:00.796Z,235
2016-12-29T09:51:41.306Z,235
2016-12-29T09:52:21.832Z,250
2016-12-29T09:53:02.327Z,255
2016-12-29T09:53:42.836Z,275
2016-12-29T09:54:23.346Z,275
2016-12-29T09:55:03.933Z,285
2016-12-29T09:55:44.451Z,285
2016-12-29T09:56:24.966Z,280
2016-12-29T09:57:05.487Z,285
2016-12-29T09:57:46.008Z,290
2016-12-29T09:58:26.541Z,295
2016-12-29T09:59:07.088Z,295
2016-12-29T09:59:47.615Z,300
2016-12-29T10:00:28.155Z,305
2016-12-29T10:01:08.683Z,305
2016-12-29T10:01:49.211Z,310
2016-12-29T10:02:29.723Z,300
2016-12-29T10:03:10.249Z,315
2016-12-29T10:03:50.764Z,320
2016-12-29T10:04:31.288Z,340
2016-12-29T10:05:11.810Z,375
2016-12-29T10:05:52.318Z,405
2016-12-29T10:06:32.839Z,445
2016-12-29T10:07:13.364Z,480
2016-12-29T10:07:53.893Z,520
2016-12-29T10:08:34.435Z,555
2016-12-29T10:09:14.960Z,600
2016-12-29T10:09:55.487Z,610
2016-12-29T10:10:36.047Z,630
2016-12-29T10:11:16.539Z,630
2016-12-29T10:11:57.086Z,640
2016-12-29T10:12:37.657Z,655
2016-12-29T10:13:18.180Z,670
2016-12-29T10:13:58.720Z,695
2016-12-29T10:14:39.257Z,690
2016-12-29T10:15:19.796Z,680
2016-12-29T10:16:00.349Z,670
2016-12-29T10:16:40.884Z,685
2016-12-29T10:17:21.420Z,710
2016-12-29T10:18:01.968Z,715
2016-12-29T10:18:42.496Z,705
2016-12-29T10:19:23.047Z,715
2016-12-29T10:20:03.574Z,725
2016-12-29T10:20:44.127Z,730
2016-12-29T10:21:24.655Z,745
2016-12-29T10:22:05.188Z,750
2016-12-29T10:22:45.722Z,755
2016-12-29T10:23:26.269Z,755
2016-12-29T10:24:06.813Z,760
2016-12-29T10:24:47.317Z,755
2016-12-29T10:25:27.845Z,775
2016-12-29T10:26:08.390Z,785
2016-12-29T10:26:48.920Z,735
2016-12-29T10:27:29.456Z,670